sensor_id;sensor_type;location;lat;lon;timestamp;noise_LAeq;noise_LA_min;noise_LA_max;noise_LA01;noise_LA95
17594;Laerm;8916;47.086;15.920;2023-04-25T00:00:09;49.06;47.96;50.22;;
17594;Laerm;8916;47.086;15.920;2023-04-25T00:02:39;49.05;48.02;50.17;;
17594;Laerm;8916;47.086;15.920;2023-04-25T00:05:09;49.06;47.98;50.30;;
17594;Laerm;8916;47.086;15.920;2023-04-25T00:07:38;49.06;48.00;50.42;;
17594;Laerm;8916;47.086;15.920;2023-04-25T00:10:11;49.05;47.86;50.16;;
17594;Laerm;8916;47.086;15.920;2023-04-25T00:12:40;49.06;47.93;50.12;;
17594;Laerm;8916;47.086;15.920;2023-04-25T00:15:10;49.06;48.05;50.42;;
17594;Laerm;8916;47.086;15.920;2023-04-25T00:17:40;49.06;48.03;50.15;;
17594;Laerm;8916;47.086;15.920;2023-04-25T00:20:11;49.06;47.90;50.20;;
17594;Laerm;8916;47.086;15.920;2023-04-25T00:22:40;49.06;47.76;50.19;;
17594;Laerm;8916;47.086;15.920;2023-04-25T00:25:11;49.06;47.98;50.09;;
17594;Laerm;8916;47.086;15.920;2023-04-25T00:27:40;49.06;47.74;50.12;;
17594;Laerm;8916;47.086;15.920;2023-04-25T00:30:11;49.07;47.74;50.15;;
17594;Laerm;8916;47.086;15.920;2023-04-25T00:32:40;49.06;47.98;50.36;;
17594;Laerm;8916;47.086;15.920;2023-04-25T00:35:09;49.07;47.93;50.22;;
17594;Laerm;8916;47.086;15.920;2023-04-25T00:37:39;49.06;48.05;50.44;;
17594;Laerm;8916;47.086;15.920;2023-04-25T00:40:10;49.06;47.55;50.21;;
17594;Laerm;8916;47.086;15.920;2023-04-25T00:42:40;49.07;48.00;50.38;;
17594;Laerm;8916;47.086;15.920;2023-04-25T00:45:13;49.06;47.90;50.14;;
17594;Laerm;8916;47.086;15.920;2023-04-25T00:47:43;49.07;47.79;50.63;;
17594;Laerm;8916;47.086;15.920;2023-04-25T00:50:13;49.08;48.03;50.25;;
17594;Laerm;8916;47.086;15.920;2023-04-25T00:52:44;49.08;48.02;50.37;;
17594;Laerm;8916;47.086;15.920;2023-04-25T00:55:15;49.06;47.93;50.12;;
17594;Laerm;8916;47.086;15.920;2023-04-25T00:57:45;49.07;48.02;50.25;;
17594;Laerm;8916;47.086;15.920;2023-04-25T01:00:16;49.07;47.83;50.39;;
17594;Laerm;8916;47.086;15.920;2023-04-25T01:02:46;49.07;48.08;50.18;;
17594;Laerm;8916;47.086;15.920;2023-04-25T01:05:16;49.07;48.05;50.25;;
17594;Laerm;8916;47.086;15.920;2023-04-25T01:07:46;49.08;47.84;50.23;;
17594;Laerm;8916;47.086;15.920;2023-04-25T01:10:17;49.07;47.83;50.46;;
17594;Laerm;8916;47.086;15.920;2023-04-25T01:12:46;49.07;47.81;50.35;;
17594;Laerm;8916;47.086;15.920;2023-04-25T01:15:15;49.06;48.00;50.14;;
17594;Laerm;8916;47.086;15.920;2023-04-25T01:17:45;49.07;48.00;50.35;;
17594;Laerm;8916;47.086;15.920;2023-04-25T01:20:14;49.07;47.95;50.21;;
17594;Laerm;8916;47.086;15.920;2023-04-25T01:22:45;49.08;48.07;50.12;;
17594;Laerm;8916;47.086;15.920;2023-04-25T01:25:15;49.08;47.93;50.14;;
17594;Laerm;8916;47.086;15.920;2023-04-25T01:27:44;49.08;47.98;50.20;;
17594;Laerm;8916;47.086;15.920;2023-04-25T01:30:14;49.08;48.03;50.44;;
17594;Laerm;8916;47.086;15.920;2023-04-25T01:32:44;49.07;47.84;50.30;;
17594;Laerm;8916;47.086;15.920;2023-04-25T01:35:13;49.09;47.96;50.17;;
17594;Laerm;8916;47.086;15.920;2023-04-25T01:37:44;49.07;48.02;50.22;;
17594;Laerm;8916;47.086;15.920;2023-04-25T01:40:13;49.07;48.00;50.20;;
17594;Laerm;8916;47.086;15.920;2023-04-25T01:42:44;49.08;47.96;50.21;;
17594;Laerm;8916;47.086;15.920;2023-04-25T01:45:13;49.08;48.05;50.28;;
17594;Laerm;8916;47.086;15.920;2023-04-25T01:47:44;49.08;47.67;50.24;;
17594;Laerm;8916;47.086;15.920;2023-04-25T01:50:18;49.09;48.10;50.37;;
17594;Laerm;8916;47.086;15.920;2023-04-25T01:52:50;49.08;48.00;50.17;;
17594;Laerm;8916;47.086;15.920;2023-04-25T01:55:20;49.08;47.77;50.45;;
17594;Laerm;8916;47.086;15.920;2023-04-25T01:57:57;49.10;48.00;50.22;;
17594;Laerm;8916;47.086;15.920;2023-04-25T02:00:40;49.08;47.95;50.23;;
17594;Laerm;8916;47.086;15.920;2023-04-25T02:03:09;49.10;48.00;50.35;;
17594;Laerm;8916;47.086;15.920;2023-04-25T02:05:40;49.09;47.95;50.20;;
17594;Laerm;8916;47.086;15.920;2023-04-25T02:08:13;49.10;47.84;50.18;;
17594;Laerm;8916;47.086;15.920;2023-04-25T02:10:43;49.11;47.95;50.33;;
17594;Laerm;8916;47.086;15.920;2023-04-25T02:13:18;49.11;47.86;50.37;;
17594;Laerm;8916;47.086;15.920;2023-04-25T02:16:06;49.11;48.13;50.36;;
17594;Laerm;8916;47.086;15.920;2023-04-25T02:18:38;49.11;47.91;50.32;;
17594;Laerm;8916;47.086;15.920;2023-04-25T02:21:07;49.12;47.74;50.28;;
17594;Laerm;8916;47.086;15.920;2023-04-25T02:23:38;49.12;48.07;50.16;;
17594;Laerm;8916;47.086;15.920;2023-04-25T02:26:07;49.11;48.07;50.25;;
17594;Laerm;8916;47.086;15.920;2023-04-25T02:28:36;49.12;48.12;50.23;;
17594;Laerm;8916;47.086;15.920;2023-04-25T02:31:05;49.12;47.96;50.25;;
17594;Laerm;8916;47.086;15.920;2023-04-25T02:33:35;49.12;48.05;50.52;;
17594;Laerm;8916;47.086;15.920;2023-04-25T02:36:06;49.13;47.86;50.26;;
17594;Laerm;8916;47.086;15.920;2023-04-25T02:38:35;49.13;48.07;50.27;;
17594;Laerm;8916;47.086;15.920;2023-04-25T02:41:06;49.12;48.00;50.17;;
17594;Laerm;8916;47.086;15.920;2023-04-25T02:43:35;49.14;48.03;50.38;;
17594;Laerm;8916;47.086;15.920;2023-04-25T02:46:04;49.14;47.90;50.23;;
17594;Laerm;8916;47.086;15.920;2023-04-25T02:48:33;49.14;47.91;50.19;;
17594;Laerm;8916;47.086;15.920;2023-04-25T02:51:03;49.14;48.05;50.16;;
17594;Laerm;8916;47.086;15.920;2023-04-25T02:53:32;49.15;47.91;50.25;;
17594;Laerm;8916;47.086;15.920;2023-04-25T02:56:01;49.15;48.13;50.39;;
17594;Laerm;8916;47.086;15.920;2023-04-25T02:58:31;49.14;47.81;50.37;;
17594;Laerm;8916;47.086;15.920;2023-04-25T03:01:00;49.14;47.93;50.40;;
17594;Laerm;8916;47.086;15.920;2023-04-25T03:03:29;49.15;48.02;50.24;;
17594;Laerm;8916;47.086;15.920;2023-04-25T03:05:59;49.15;48.13;50.49;;
17594;Laerm;8916;47.086;15.920;2023-04-25T03:08:31;49.15;48.02;50.47;;
17594;Laerm;8916;47.086;15.920;2023-04-25T03:11:02;49.15;48.00;50.40;;
17594;Laerm;8916;47.086;15.920;2023-04-25T03:13:33;49.16;47.96;50.43;;
17594;Laerm;8916;47.086;15.920;2023-04-25T03:16:02;49.16;48.05;50.43;;
17594;Laerm;8916;47.086;15.920;2023-04-25T03:18:32;49.16;48.13;50.23;;
17594;Laerm;8916;47.086;15.920;2023-04-25T03:21:01;49.17;47.96;50.31;;
17594;Laerm;8916;47.086;15.920;2023-04-25T03:23:31;49.17;47.88;50.12;;
17594;Laerm;8916;47.086;15.920;2023-04-25T03:26:00;49.18;48.07;50.38;;
17594;Laerm;8916;47.086;15.920;2023-04-25T03:28:30;49.18;48.10;50.41;;
17594;Laerm;8916;47.086;15.920;2023-04-25T03:31:01;49.17;48.13;50.56;;
17594;Laerm;8916;47.086;15.920;2023-04-25T03:33:30;49.18;48.15;50.22;;
17594;Laerm;8916;47.086;15.920;2023-04-25T03:35:59;49.18;47.99;50.33;;
17594;Laerm;8916;47.086;15.920;2023-04-25T03:38:29;49.18;48.13;50.33;;
17594;Laerm;8916;47.086;15.920;2023-04-25T03:41:00;49.19;47.93;50.14;;
17594;Laerm;8916;47.086;15.920;2023-04-25T03:43:38;49.18;48.02;50.32;;
17594;Laerm;8916;47.086;15.920;2023-04-25T03:46:13;49.17;48.12;50.13;;
17594;Laerm;8916;47.086;15.920;2023-04-25T03:48:42;49.18;48.00;50.15;;
17594;Laerm;8916;47.086;15.920;2023-04-25T03:51:18;49.17;48.03;50.35;;
17594;Laerm;8916;47.086;15.920;2023-04-25T03:53:48;49.18;48.13;50.66;;
17594;Laerm;8916;47.086;15.920;2023-04-25T03:56:37;49.17;48.16;50.31;;
17594;Laerm;8916;47.086;15.920;2023-04-25T03:59:16;49.19;48.03;50.48;;
17594;Laerm;8916;47.086;15.920;2023-04-25T04:01:47;49.18;48.16;50.31;;
17594;Laerm;8916;47.086;15.920;2023-04-25T04:04:16;49.18;48.05;50.45;;
17594;Laerm;8916;47.086;15.920;2023-04-25T04:06:46;49.18;48.07;50.31;;
17594;Laerm;8916;47.086;15.920;2023-04-25T04:09:19;49.18;48.12;50.37;;
17594;Laerm;8916;47.086;15.920;2023-04-25T04:11:49;49.18;48.03;50.24;;
17594;Laerm;8916;47.086;15.920;2023-04-25T04:14:18;49.19;48.03;50.41;;
17594;Laerm;8916;47.086;15.920;2023-04-25T04:16:51;49.19;48.12;50.29;;
17594;Laerm;8916;47.086;15.920;2023-04-25T04:19:22;49.19;48.16;50.22;;
17594;Laerm;8916;47.086;15.920;2023-04-25T04:21:59;49.19;48.12;50.33;;
17594;Laerm;8916;47.086;15.920;2023-04-25T04:24:29;49.19;48.02;50.45;;
17594;Laerm;8916;47.086;15.920;2023-04-25T04:27:02;49.19;47.91;50.26;;
17594;Laerm;8916;47.086;15.920;2023-04-25T04:29:50;49.19;48.05;50.47;;
17594;Laerm;8916;47.086;15.920;2023-04-25T04:32:41;49.19;48.07;50.37;;
17594;Laerm;8916;47.086;15.920;2023-04-25T04:35:11;49.19;48.13;50.32;;
17594;Laerm;8916;47.086;15.920;2023-04-25T04:37:40;49.19;48.00;50.24;;
17594;Laerm;8916;47.086;15.920;2023-04-25T04:40:12;49.18;47.72;50.42;;
17594;Laerm;8916;47.086;15.920;2023-04-25T04:42:48;49.18;48.10;50.18;;
17594;Laerm;8916;47.086;15.920;2023-04-25T04:45:44;49.19;48.15;50.40;;
17594;Laerm;8916;47.086;15.920;2023-04-25T04:48:32;49.18;48.13;50.37;;
17594;Laerm;8916;47.086;15.920;2023-04-25T04:51:18;49.18;48.07;50.22;;
17594;Laerm;8916;47.086;15.920;2023-04-25T04:53:54;49.18;48.13;50.29;;
17594;Laerm;8916;47.086;15.920;2023-04-25T04:56:51;49.18;47.95;50.30;;
17594;Laerm;8916;47.086;15.920;2023-04-25T04:59:31;49.17;47.88;50.51;;
17594;Laerm;8916;47.086;15.920;2023-04-25T05:02:08;49.19;48.00;50.39;;
17594;Laerm;8916;47.086;15.920;2023-04-25T05:05:09;49.18;48.16;50.33;;
17594;Laerm;8916;47.086;15.920;2023-04-25T05:08:14;49.18;48.05;50.41;;
17594;Laerm;8916;47.086;15.920;2023-04-25T05:11:06;49.18;47.91;50.43;;
17594;Laerm;8916;47.086;15.920;2023-04-25T05:13:54;49.18;48.05;50.36;;
17594;Laerm;8916;47.086;15.920;2023-04-25T05:16:46;49.18;47.98;50.29;;
17594;Laerm;8916;47.086;15.920;2023-04-25T05:19:39;49.18;48.16;50.27;;
17594;Laerm;8916;47.086;15.920;2023-04-25T05:22:39;49.17;47.93;50.38;;
17594;Laerm;8916;47.086;15.920;2023-04-25T05:25:22;49.18;47.86;50.25;;
17594;Laerm;8916;47.086;15.920;2023-04-25T05:27:51;49.16;48.07;50.18;;
17594;Laerm;8916;47.086;15.920;2023-04-25T05:30:37;49.16;48.15;50.32;;
17594;Laerm;8916;47.086;15.920;2023-04-25T05:33:19;49.16;47.95;50.36;;
17594;Laerm;8916;47.086;15.920;2023-04-25T05:35:48;49.16;48.13;50.25;;
17594;Laerm;8916;47.086;15.920;2023-04-25T05:38:20;49.15;48.07;50.35;;
17594;Laerm;8916;47.086;15.920;2023-04-25T05:41:07;49.15;48.10;50.34;;
17594;Laerm;8916;47.086;15.920;2023-04-25T05:43:43;49.15;48.08;50.27;;
17594;Laerm;8916;47.086;15.920;2023-04-25T05:46:38;49.14;48.07;50.21;;
17594;Laerm;8916;47.086;15.920;2023-04-25T05:49:15;49.15;48.09;50.20;;
17594;Laerm;8916;47.086;15.920;2023-04-25T05:52:24;49.15;48.07;50.41;;
17594;Laerm;8916;47.086;15.920;2023-04-25T05:55:06;49.13;47.98;50.14;;
17594;Laerm;8916;47.086;15.920;2023-04-25T05:57:35;49.13;47.81;50.22;;
17594;Laerm;8916;47.086;15.920;2023-04-25T06:00:08;49.13;48.07;50.54;;
17594;Laerm;8916;47.086;15.920;2023-04-25T06:02:40;49.12;47.84;50.18;;
17594;Laerm;8916;47.086;15.920;2023-04-25T06:05:12;49.12;47.77;50.23;;
17594;Laerm;8916;47.086;15.920;2023-04-25T06:07:41;49.11;48.02;50.24;;
17594;Laerm;8916;47.086;15.920;2023-04-25T06:10:12;49.10;48.02;50.19;;
17594;Laerm;8916;47.086;15.920;2023-04-25T06:12:42;49.10;47.96;50.13;;
17594;Laerm;8916;47.086;15.920;2023-04-25T06:15:13;49.10;48.03;50.20;;
17594;Laerm;8916;47.086;15.920;2023-04-25T06:17:55;49.09;48.03;50.31;;
17594;Laerm;8916;47.086;15.920;2023-04-25T06:20:25;49.08;48.02;50.28;;
17594;Laerm;8916;47.086;15.920;2023-04-25T06:22:57;49.08;47.84;50.33;;
17594;Laerm;8916;47.086;15.920;2023-04-25T06:25:44;49.07;47.70;50.48;;
17594;Laerm;8916;47.086;15.920;2023-04-25T06:28:13;49.07;47.91;50.29;;
17594;Laerm;8916;47.086;15.920;2023-04-25T06:30:44;49.06;47.79;50.13;;
17594;Laerm;8916;47.086;15.920;2023-04-25T06:33:17;49.06;47.81;50.30;;
17594;Laerm;8916;47.086;15.920;2023-04-25T06:35:47;49.06;47.91;50.21;;
17594;Laerm;8916;47.086;15.920;2023-04-25T06:38:21;49.05;47.93;50.37;;
17594;Laerm;8916;47.086;15.920;2023-04-25T06:40:53;49.04;47.90;50.23;;
17594;Laerm;8916;47.086;15.920;2023-04-25T06:43:23;49.04;48.03;50.21;;
17594;Laerm;8916;47.086;15.920;2023-04-25T06:46:15;49.04;47.91;50.16;;
17594;Laerm;8916;47.086;15.920;2023-04-25T06:48:47;49.02;48.02;50.28;;
17594;Laerm;8916;47.086;15.920;2023-04-25T06:51:18;49.02;47.79;50.38;;
17594;Laerm;8916;47.086;15.920;2023-04-25T06:53:51;49.01;47.95;50.20;;
17594;Laerm;8916;47.086;15.920;2023-04-25T06:56:29;49.01;48.03;50.16;;
17594;Laerm;8916;47.086;15.920;2023-04-25T06:59:05;49.01;47.84;50.17;;
17594;Laerm;8916;47.086;15.920;2023-04-25T07:01:37;49.01;47.83;50.45;;
17594;Laerm;8916;47.086;15.920;2023-04-25T07:04:11;48.99;47.67;50.16;;
17594;Laerm;8916;47.086;15.920;2023-04-25T07:06:45;48.99;47.88;50.05;;
17594;Laerm;8916;47.086;15.920;2023-04-25T07:09:19;48.98;47.81;50.08;;
17594;Laerm;8916;47.086;15.920;2023-04-25T07:11:51;48.98;47.83;49.94;;
17594;Laerm;8916;47.086;15.920;2023-04-25T07:14:20;48.97;47.88;50.04;;
17594;Laerm;8916;47.086;15.920;2023-04-25T07:16:49;48.97;47.77;50.42;;
17594;Laerm;8916;47.086;15.920;2023-04-25T07:19:19;48.95;47.96;50.14;;
17594;Laerm;8916;47.086;15.920;2023-04-25T07:21:49;48.95;47.74;50.04;;
17594;Laerm;8916;47.086;15.920;2023-04-25T07:24:21;48.96;47.86;50.08;;
17594;Laerm;8916;47.086;15.920;2023-04-25T07:26:53;48.93;47.72;50.21;;
17594;Laerm;8916;47.086;15.920;2023-04-25T07:29:29;48.92;47.91;50.05;;
17594;Laerm;8916;47.086;15.920;2023-04-25T07:32:00;48.87;47.81;50.26;;
17594;Laerm;8916;47.086;15.920;2023-04-25T07:34:29;48.81;47.67;49.95;;
17594;Laerm;8916;47.086;15.920;2023-04-25T07:37:00;48.76;47.61;50.23;;
17594;Laerm;8916;47.086;15.920;2023-04-25T07:39:37;48.71;47.52;49.91;;
17594;Laerm;8916;47.086;15.920;2023-04-25T07:42:07;48.68;47.52;49.84;;
17594;Laerm;8916;47.086;15.920;2023-04-25T07:44:41;48.68;47.61;49.88;;
17594;Laerm;8916;47.086;15.920;2023-04-25T07:47:12;48.67;47.54;49.85;;
17594;Laerm;8916;47.086;15.920;2023-04-25T07:49:43;48.69;47.42;50.03;;
17594;Laerm;8916;47.086;15.920;2023-04-25T07:52:16;48.70;47.59;49.96;;
17594;Laerm;8916;47.086;15.920;2023-04-25T07:54:52;48.69;47.34;49.97;;
17594;Laerm;8916;47.086;15.920;2023-04-25T07:57:30;48.66;47.57;49.82;;
17594;Laerm;8916;47.086;15.920;2023-04-25T07:59:59;48.66;47.40;49.89;;
17594;Laerm;8916;47.086;15.920;2023-04-25T08:02:29;48.68;47.28;49.83;;
17594;Laerm;8916;47.086;15.920;2023-04-25T08:04:58;48.69;47.50;49.79;;
17594;Laerm;8916;47.086;15.920;2023-04-25T08:07:28;48.69;47.59;49.87;;
17594;Laerm;8916;47.086;15.920;2023-04-25T08:10:02;48.68;47.52;49.94;;
17594;Laerm;8916;47.086;15.920;2023-04-25T08:12:35;48.67;47.48;49.82;;
17594;Laerm;8916;47.086;15.920;2023-04-25T08:15:06;48.66;47.50;49.96;;
17594;Laerm;8916;47.086;15.920;2023-04-25T08:17:38;48.64;47.50;49.73;;
17594;Laerm;8916;47.086;15.920;2023-04-25T08:20:08;48.65;47.44;49.84;;
17594;Laerm;8916;47.086;15.920;2023-04-25T08:22:38;48.71;47.46;50.17;;
17594;Laerm;8916;47.086;15.920;2023-04-25T08:25:20;48.75;47.57;49.96;;
17594;Laerm;8916;47.086;15.920;2023-04-25T08:27:50;48.69;47.63;50.00;;
17594;Laerm;8916;47.086;15.920;2023-04-25T08:30:22;48.65;47.44;50.24;;
17594;Laerm;8916;47.086;15.920;2023-04-25T08:32:51;48.62;47.46;50.04;;
17594;Laerm;8916;47.086;15.920;2023-04-25T08:35:41;48.55;47.42;49.71;;
17594;Laerm;8916;47.086;15.920;2023-04-25T08:38:10;48.55;47.20;49.88;;
17594;Laerm;8916;47.086;15.920;2023-04-25T08:40:40;48.60;47.52;49.87;;
17594;Laerm;8916;47.086;15.920;2023-04-25T08:43:19;48.57;47.38;49.66;;
17594;Laerm;8916;47.086;15.920;2023-04-25T08:45:49;48.65;47.52;49.84;;
17594;Laerm;8916;47.086;15.920;2023-04-25T08:48:36;48.60;47.26;49.90;;
17594;Laerm;8916;47.086;15.920;2023-04-25T08:51:07;48.60;47.51;49.85;;
17594;Laerm;8916;47.086;15.920;2023-04-25T08:53:41;48.56;47.46;49.69;;
17594;Laerm;8916;47.086;15.920;2023-04-25T08:56:16;48.52;47.30;49.81;;
17594;Laerm;8916;47.086;15.920;2023-04-25T08:58:49;48.51;47.42;49.84;;
17594;Laerm;8916;47.086;15.920;2023-04-25T09:01:19;48.50;47.30;50.08;;
17594;Laerm;8916;47.086;15.920;2023-04-25T09:03:53;48.48;47.32;49.57;;
17594;Laerm;8916;47.086;15.920;2023-04-25T09:06:23;48.41;47.16;49.71;;
17594;Laerm;8916;47.086;15.920;2023-04-25T09:08:54;48.39;47.30;49.85;;
17594;Laerm;8916;47.086;15.920;2023-04-25T09:11:23;48.54;47.38;49.89;;
17594;Laerm;8916;47.086;15.920;2023-04-25T09:14:11;48.65;47.38;50.06;;
17594;Laerm;8916;47.086;15.920;2023-04-25T09:17:01;48.72;47.48;50.00;;
17594;Laerm;8916;47.086;15.920;2023-04-25T09:19:49;48.77;47.67;49.92;;
17594;Laerm;8916;47.086;15.920;2023-04-25T09:22:26;48.76;47.61;50.06;;
17594;Laerm;8916;47.086;15.920;2023-04-25T09:24:55;48.79;47.77;50.15;;
17594;Laerm;8916;47.086;15.920;2023-04-25T09:27:28;48.77;47.65;50.03;;
17594;Laerm;8916;47.086;15.920;2023-04-25T09:30:17;48.78;47.70;49.95;;
17594;Laerm;8916;47.086;15.920;2023-04-25T09:33:05;48.81;47.76;50.24;;
17594;Laerm;8916;47.086;15.920;2023-04-25T09:35:37;48.81;47.79;49.96;;
17594;Laerm;8916;47.086;15.920;2023-04-25T09:38:10;48.81;47.74;49.93;;
17594;Laerm;8916;47.086;15.920;2023-04-25T09:40:58;48.79;47.65;49.91;;
17594;Laerm;8916;47.086;15.920;2023-04-25T09:43:49;48.77;47.61;49.97;;
17594;Laerm;8916;47.086;15.920;2023-04-25T09:46:23;48.71;47.59;49.84;;
17594;Laerm;8916;47.086;15.920;2023-04-25T09:48:55;48.70;47.55;49.96;;
17594;Laerm;8916;47.086;15.920;2023-04-25T09:51:32;48.74;47.38;49.73;;
17594;Laerm;8916;47.086;15.920;2023-04-25T09:54:03;48.74;47.48;49.95;;
17594;Laerm;8916;47.086;15.920;2023-04-25T09:56:48;48.73;47.55;49.79;;
17594;Laerm;8916;47.086;15.920;2023-04-25T09:59:21;48.65;47.32;49.89;;
17594;Laerm;8916;47.086;15.920;2023-04-25T10:01:54;48.58;47.61;50.02;;
17594;Laerm;8916;47.086;15.920;2023-04-25T10:04:34;48.57;47.44;50.01;;
17594;Laerm;8916;47.086;15.920;2023-04-25T10:07:08;48.58;47.57;49.87;;
17594;Laerm;8916;47.086;15.920;2023-04-25T10:09:39;48.59;47.40;49.81;;
17594;Laerm;8916;47.086;15.920;2023-04-25T10:12:08;48.63;47.53;49.94;;
17594;Laerm;8916;47.086;15.920;2023-04-25T10:14:38;48.59;47.40;49.80;;
17594;Laerm;8916;47.086;15.920;2023-04-25T10:17:10;48.54;47.46;49.80;;
17594;Laerm;8916;47.086;15.920;2023-04-25T10:19:40;48.50;47.44;49.70;;
17594;Laerm;8916;47.086;15.920;2023-04-25T10:22:14;48.44;47.12;49.93;;
17594;Laerm;8916;47.086;15.920;2023-04-25T10:24:46;48.42;47.22;50.06;;
17594;Laerm;8916;47.086;15.920;2023-04-25T10:27:15;48.52;47.40;49.72;;
17594;Laerm;8916;47.086;15.920;2023-04-25T10:29:44;48.62;47.28;49.79;;
17594;Laerm;8916;47.086;15.920;2023-04-25T10:32:15;48.65;47.54;49.87;;
17594;Laerm;8916;47.086;15.920;2023-04-25T10:34:45;48.69;47.72;50.11;;
17594;Laerm;8916;47.086;15.920;2023-04-25T10:37:16;48.70;47.52;50.07;;
17594;Laerm;8916;47.086;15.920;2023-04-25T10:39:45;48.66;47.52;49.94;;
17594;Laerm;8916;47.086;15.920;2023-04-25T10:42:14;48.54;47.44;50.05;;
17594;Laerm;8916;47.086;15.920;2023-04-25T10:45:01;48.45;47.26;50.17;;
17594;Laerm;8916;47.086;15.920;2023-04-25T10:47:36;48.43;47.28;49.80;;
17594;Laerm;8916;47.086;15.920;2023-04-25T10:50:14;48.46;47.24;49.51;;
17594;Laerm;8916;47.086;15.920;2023-04-25T10:52:44;48.33;47.22;49.64;;
17594;Laerm;8916;47.086;15.920;2023-04-25T10:55:13;48.30;47.08;49.63;;
17594;Laerm;8916;47.086;15.920;2023-04-25T10:57:44;48.36;47.22;49.77;;
17594;Laerm;8916;47.086;15.920;2023-04-25T11:00:18;48.30;47.26;49.96;;
17594;Laerm;8916;47.086;15.920;2023-04-25T11:02:53;48.31;47.24;49.47;;
17594;Laerm;8916;47.086;15.920;2023-04-25T11:05:29;48.30;47.34;49.52;;
17594;Laerm;8916;47.086;15.920;2023-04-25T11:08:11;48.30;47.16;49.57;;
17594;Laerm;8916;47.086;15.920;2023-04-25T11:10:44;48.36;47.12;49.59;;
17594;Laerm;8916;47.086;15.920;2023-04-25T11:13:13;48.45;47.12;49.59;;
17594;Laerm;8916;47.086;15.920;2023-04-25T11:15:43;48.57;47.42;49.73;;
17594;Laerm;8916;47.086;15.920;2023-04-25T11:18:17;48.69;47.57;49.95;;
17594;Laerm;8916;47.086;15.920;2023-04-25T11:20:48;48.69;47.09;50.01;;
17594;Laerm;8916;47.086;15.920;2023-04-25T11:23:18;48.71;47.65;49.85;;
17594;Laerm;8916;47.086;15.920;2023-04-25T11:25:49;48.68;47.54;49.83;;
17594;Laerm;8916;47.086;15.920;2023-04-25T11:28:21;48.58;47.50;49.89;;
17594;Laerm;8916;47.086;15.920;2023-04-25T11:30:52;48.62;47.52;49.59;;
17594;Laerm;8916;47.086;15.920;2023-04-25T11:33:25;48.65;47.55;49.73;;
17594;Laerm;8916;47.086;15.920;2023-04-25T11:35:55;48.68;47.50;50.05;;
17594;Laerm;8916;47.086;15.920;2023-04-25T11:38:25;48.68;47.61;50.08;;
17594;Laerm;8916;47.086;15.920;2023-04-25T11:40:57;48.64;47.40;50.27;;
17594;Laerm;8916;47.086;15.920;2023-04-25T11:43:26;48.64;47.32;49.93;;
17594;Laerm;8916;47.086;15.920;2023-04-25T11:45:55;48.66;47.55;49.84;;
17594;Laerm;8916;47.086;15.920;2023-04-25T11:48:25;48.62;47.65;49.92;;
17594;Laerm;8916;47.086;15.920;2023-04-25T11:50:54;48.56;47.30;50.07;;
17594;Laerm;8916;47.086;15.920;2023-04-25T11:53:23;48.53;47.48;50.32;;
17594;Laerm;8916;47.086;15.920;2023-04-25T11:55:55;48.60;47.42;50.19;;
17594;Laerm;8916;47.086;15.920;2023-04-25T11:58:25;48.66;47.46;49.93;;
17594;Laerm;8916;47.086;15.920;2023-04-25T12:00:55;48.64;47.48;50.08;;
17594;Laerm;8916;47.086;15.920;2023-04-25T12:03:30;48.65;47.61;49.89;;
17594;Laerm;8916;47.086;15.920;2023-04-25T12:06:03;48.67;47.36;49.82;;
17594;Laerm;8916;47.086;15.920;2023-04-25T12:08:33;48.67;47.57;50.04;;
17594;Laerm;8916;47.086;15.920;2023-04-25T12:11:03;48.68;47.65;49.75;;
17594;Laerm;8916;47.086;15.920;2023-04-25T12:13:32;48.70;47.54;50.41;;
17594;Laerm;8916;47.086;15.920;2023-04-25T12:16:01;48.72;47.63;49.79;;
17594;Laerm;8916;47.086;15.920;2023-04-25T12:18:36;48.72;47.36;50.08;;
17594;Laerm;8916;47.086;15.920;2023-04-25T12:21:07;48.74;47.55;50.07;;
17594;Laerm;8916;47.086;15.920;2023-04-25T12:23:39;48.73;47.61;49.90;;
17594;Laerm;8916;47.086;15.920;2023-04-25T12:26:09;48.71;47.67;49.88;;
17594;Laerm;8916;47.086;15.920;2023-04-25T12:28:39;48.70;47.67;50.28;;
17594;Laerm;8916;47.086;15.920;2023-04-25T12:31:08;48.71;47.44;50.09;;
17594;Laerm;8916;47.086;15.920;2023-04-25T12:33:39;48.67;47.57;49.78;;
17594;Laerm;8916;47.086;15.920;2023-04-25T12:36:10;48.63;47.55;50.00;;
17594;Laerm;8916;47.086;15.920;2023-04-25T12:38:41;48.63;47.50;49.95;;
17594;Laerm;8916;47.086;15.920;2023-04-25T12:41:11;48.64;47.68;49.97;;
17594;Laerm;8916;47.086;15.920;2023-04-25T12:43:40;48.63;47.46;49.67;;
17594;Laerm;8916;47.086;15.920;2023-04-25T12:46:09;48.61;47.40;49.75;;
17594;Laerm;8916;47.086;15.920;2023-04-25T12:48:39;48.54;47.44;49.77;;
17594;Laerm;8916;47.086;15.920;2023-04-25T12:51:09;48.47;47.36;49.69;;
17594;Laerm;8916;47.086;15.920;2023-04-25T12:53:38;48.46;47.28;49.63;;
17594;Laerm;8916;47.086;15.920;2023-04-25T12:56:08;48.46;47.28;49.74;;
17594;Laerm;8916;47.086;15.920;2023-04-25T12:58:37;48.53;47.30;49.77;;
17594;Laerm;8916;47.086;15.920;2023-04-25T13:01:07;48.58;47.44;49.91;;
17594;Laerm;8916;47.086;15.920;2023-04-25T13:03:36;48.60;47.42;49.95;;
17594;Laerm;8916;47.086;15.920;2023-04-25T13:06:07;48.63;47.30;49.94;;
17594;Laerm;8916;47.086;15.920;2023-04-25T13:08:36;48.61;47.32;50.07;;
17594;Laerm;8916;47.086;15.920;2023-04-25T13:11:06;48.59;47.54;49.70;;
17594;Laerm;8916;47.086;15.920;2023-04-25T13:13:35;48.56;47.44;49.69;;
17594;Laerm;8916;47.086;15.920;2023-04-25T13:16:05;48.53;47.38;50.03;;
17594;Laerm;8916;47.086;15.920;2023-04-25T13:18:35;48.56;47.50;49.70;;
17594;Laerm;8916;47.086;15.920;2023-04-25T13:21:04;48.60;47.32;49.69;;
17594;Laerm;8916;47.086;15.920;2023-04-25T13:23:35;48.57;47.40;49.78;;
17594;Laerm;8916;47.086;15.920;2023-04-25T13:26:04;48.53;47.36;49.88;;
17594;Laerm;8916;47.086;15.920;2023-04-25T13:28:33;48.55;47.32;49.81;;
17594;Laerm;8916;47.086;15.920;2023-04-25T13:31:06;48.60;47.50;49.78;;
17594;Laerm;8916;47.086;15.920;2023-04-25T13:33:35;48.62;47.59;50.06;;
17594;Laerm;8916;47.086;15.920;2023-04-25T13:36:05;48.63;47.38;49.91;;
17594;Laerm;8916;47.086;15.920;2023-04-25T13:38:35;48.65;47.55;50.01;;
17594;Laerm;8916;47.086;15.920;2023-04-25T13:41:04;48.69;47.48;49.82;;
17594;Laerm;8916;47.086;15.920;2023-04-25T13:43:34;48.72;47.54;49.85;;
17594;Laerm;8916;47.086;15.920;2023-04-25T13:46:04;48.73;47.38;49.84;;
17594;Laerm;8916;47.086;15.920;2023-04-25T13:48:33;48.72;47.65;49.92;;
17594;Laerm;8916;47.086;15.920;2023-04-25T13:51:03;48.73;47.61;49.76;;
17594;Laerm;8916;47.086;15.920;2023-04-25T13:53:32;48.73;47.38;49.85;;
17594;Laerm;8916;47.086;15.920;2023-04-25T13:56:03;48.72;47.34;49.93;;
17594;Laerm;8916;47.086;15.920;2023-04-25T13:58:32;48.69;47.65;49.89;;
17594;Laerm;8916;47.086;15.920;2023-04-25T14:01:01;48.63;47.55;49.91;;
17594;Laerm;8916;47.086;15.920;2023-04-25T14:03:31;48.55;47.44;49.80;;
17594;Laerm;8916;47.086;15.920;2023-04-25T14:06:00;48.51;47.38;49.85;;
17594;Laerm;8916;47.086;15.920;2023-04-25T14:08:29;48.52;47.48;49.83;;
17594;Laerm;8916;47.086;15.920;2023-04-25T14:10:59;48.54;47.44;49.83;;
17594;Laerm;8916;47.086;15.920;2023-04-25T14:13:29;48.59;47.55;49.87;;
17594;Laerm;8916;47.086;15.920;2023-04-25T14:15:59;48.60;47.44;49.97;;